createdAt,value
2018-02-08T00:01:31.373Z,0.20
2018-02-08T00:03:58.843Z,0.20
2018-02-08T00:06:26.329Z,0.10
2018-02-08T00:08:53.800Z,0.10
2018-02-08T00:11:21.250Z,0.10
2018-02-08T00:13:48.706Z,0.20
2018-02-08T00:16:16.588Z,0.20
2018-02-08T00:18:44.051Z,0.20
2018-02-08T00:21:11.506Z,0.20
2018-02-08T00:23:38.965Z,0.20
2018-02-08T00:26:06.451Z,0.20
2018-02-08T00:28:33.892Z,0.20
2018-02-08T00:31:01.351Z,0.20
2018-02-08T00:33:28.822Z,0.20
2018-02-08T00:35:56.270Z,0.20
2018-02-08T00:38:23.709Z,0.20
2018-02-08T00:40:51.949Z,0.20
2018-02-08T00:43:19.396Z,0.20
2018-02-08T00:45:46.869Z,0.20
2018-02-08T00:48:14.308Z,0.20
2018-02-08T00:50:41.761Z,0.10
2018-02-08T00:53:09.242Z,0.20
2018-02-08T00:55:36.698Z,0.20
2018-02-08T00:58:04.160Z,0.20
2018-02-08T01:00:31.632Z,0.20
2018-02-08T01:02:59.089Z,0.20
2018-02-08T01:05:26.552Z,0.20
2018-02-08T01:10:28.653Z,0.20
2018-02-08T01:12:56.115Z,0.10
2018-02-08T01:15:23.564Z,0.20
2018-02-08T01:17:51.018Z,0.20
2018-02-08T01:20:18.480Z,0.30
2018-02-08T01:22:45.964Z,0.30
2018-02-08T01:25:13.428Z,0.30
2018-02-08T01:27:40.897Z,0.30
2018-02-08T01:30:08.466Z,0.20
2018-02-08T01:32:35.913Z,0.20
2018-02-08T01:35:03.369Z,0.20
2018-02-08T01:37:30.820Z,0.20
2018-02-08T01:39:58.290Z,0.20
2018-02-08T01:42:25.758Z,0.20
2018-02-08T01:44:53.208Z,0.20
2018-02-08T01:47:20.675Z,0.20
2018-02-08T01:49:48.151Z,0.20
2018-02-08T01:52:15.630Z,0.20
2018-02-08T01:54:43.133Z,0.30
2018-02-08T01:57:10.595Z,0.30
2018-02-08T01:59:38.812Z,0.30
2018-02-08T02:02:06.272Z,0.30
2018-02-08T02:04:33.722Z,0.30
2018-02-08T02:07:01.179Z,0.30
2018-02-08T02:09:28.662Z,0.30
2018-02-08T02:11:56.128Z,0.30
2018-02-08T02:14:23.585Z,0.30
2018-02-08T02:16:51.069Z,0.30
2018-02-08T02:19:18.538Z,0.30
2018-02-08T02:21:46.006Z,0.20
2018-02-08T02:24:13.637Z,0.20
2018-02-08T02:26:41.106Z,0.10
2018-02-08T02:29:08.566Z,0.10
2018-02-08T02:31:36.031Z,0.10
2018-02-08T02:34:03.553Z,0.00
2018-02-08T02:36:31.013Z,0.00
2018-02-08T02:38:58.464Z,0.10
2018-02-08T02:41:25.929Z,0.10
2018-02-08T02:43:53.396Z,0.00
2018-02-08T02:46:20.853Z,0.10
2018-02-08T02:48:48.325Z,0.10
2018-02-08T02:51:15.791Z,0.10
2018-02-08T02:53:43.254Z,0.10
2018-02-08T02:56:10.702Z,0.10
2018-02-08T02:58:38.157Z,0.10
2018-02-08T03:01:05.632Z,0.20
2018-02-08T03:03:33.109Z,0.20
2018-02-08T03:06:01.324Z,0.20
2018-02-08T03:08:28.790Z,0.10
2018-02-08T03:10:56.249Z,0.20
2018-02-08T03:13:23.719Z,0.20
2018-02-08T03:15:51.180Z,0.20
2018-02-08T03:18:18.661Z,0.20
2018-02-08T03:20:46.125Z,0.20
2018-02-08T03:23:13.604Z,0.20
2018-02-08T03:25:41.093Z,0.20
2018-02-08T03:28:09.305Z,0.20
2018-02-08T03:30:36.806Z,0.20
2018-02-08T03:33:04.248Z,0.20
2018-02-08T03:35:31.699Z,0.20
2018-02-08T03:37:59.157Z,0.20
2018-02-08T03:40:26.611Z,0.20
2018-02-08T03:42:54.070Z,0.20
2018-02-08T03:45:21.531Z,0.20
2018-02-08T03:47:48.977Z,0.10
2018-02-08T03:50:17.239Z,0.20
2018-02-08T03:52:45.112Z,0.20
2018-02-08T03:55:12.578Z,0.20
2018-02-08T03:57:40.037Z,0.20
2018-02-08T04:00:07.493Z,0.20
2018-02-08T04:02:35.320Z,0.10
2018-02-08T04:05:02.771Z,0.20
2018-02-08T04:07:30.989Z,0.10
2018-02-08T04:09:58.453Z,0.10
2018-02-08T04:12:25.902Z,0.20
2018-02-08T04:14:53.385Z,0.10
2018-02-08T04:17:20.844Z,0.20
2018-02-08T04:22:22.211Z,0.20
2018-02-08T04:24:49.675Z,0.10
2018-02-08T04:27:17.133Z,0.10
2018-02-08T04:29:44.598Z,0.10
2018-02-08T04:32:12.060Z,0.10
2018-02-08T04:34:39.511Z,0.10
2018-02-08T04:37:06.955Z,0.10
2018-02-08T04:39:46.089Z,0.10
2018-02-08T04:42:25.528Z,0.10
2018-02-08T04:45:05.034Z,0.10
2018-02-08T04:47:54.887Z,0.10
2018-02-08T04:50:22.339Z,0.00
2018-02-08T04:52:49.829Z,0.10
2018-02-08T04:55:18.047Z,0.00
2018-02-08T04:57:45.508Z,0.00
2018-02-08T05:00:12.965Z,0.00
2018-02-08T05:02:40.416Z,0.00
2018-02-08T05:05:08.648Z,0.00
2018-02-08T05:07:36.106Z,0.00
2018-02-08T05:10:03.616Z,0.00
2018-02-08T05:12:31.031Z,0.00
2018-02-08T05:14:58.495Z,0.00
2018-02-08T05:17:26.713Z,0.00
2018-02-08T05:19:54.934Z,0.00
2018-02-08T05:22:22.411Z,-0.10
2018-02-08T05:24:49.864Z,0.00
2018-02-08T05:27:17.322Z,0.00
2018-02-08T05:29:44.795Z,0.00
2018-02-08T05:32:12.264Z,0.00
2018-02-08T05:34:39.717Z,0.00
2018-02-08T05:37:07.180Z,0.00
2018-02-08T05:39:34.643Z,-0.10
2018-02-08T05:42:02.091Z,0.00
2018-02-08T05:44:29.553Z,0.00
2018-02-08T05:46:57.018Z,0.00
2018-02-08T05:49:24.462Z,0.00
2018-02-08T05:51:51.928Z,-0.10
2018-02-08T05:54:19.410Z,-0.10
2018-02-08T05:56:46.922Z,0.00
2018-02-08T05:59:14.381Z,-0.10
2018-02-08T06:01:41.854Z,-0.10
2018-02-08T06:04:10.088Z,-0.10
2018-02-08T06:06:37.564Z,-0.10
2018-02-08T06:09:05.016Z,-0.10
2018-02-08T06:11:32.524Z,-0.10
2018-02-08T06:14:00.747Z,-0.20
2018-02-08T06:16:28.211Z,-0.30
2018-02-08T06:18:55.674Z,-0.20
2018-02-08T06:21:23.138Z,-0.30
2018-02-08T06:23:50.640Z,0.00
2018-02-08T06:26:18.084Z,-0.10
2018-02-08T06:28:45.543Z,-0.20
2018-02-08T06:31:12.999Z,-0.30
2018-02-08T06:33:40.475Z,-0.30
2018-02-08T06:36:07.957Z,-0.30
2018-02-08T06:38:35.420Z,-0.30
2018-02-08T06:41:02.862Z,-0.40
2018-02-08T06:43:30.337Z,-0.30
2018-02-08T06:45:57.801Z,-0.30
2018-02-08T06:48:25.276Z,-0.30
2018-02-08T06:50:52.716Z,-0.30
2018-02-08T06:53:20.175Z,-0.30
2018-02-08T06:55:47.630Z,-0.30
2018-02-08T06:58:15.211Z,-0.30
2018-02-08T07:00:42.648Z,-0.30
2018-02-08T07:03:10.099Z,-0.30
2018-02-08T07:05:37.561Z,-0.40
2018-02-08T07:08:05.007Z,-0.40
2018-02-08T07:10:32.468Z,-0.40
2018-02-08T07:12:59.934Z,-0.40
2018-02-08T07:15:27.379Z,-0.40
2018-02-08T07:17:55.623Z,-0.40
2018-02-08T07:20:23.063Z,-0.50
2018-02-08T07:22:50.537Z,-0.40
2018-02-08T07:25:17.994Z,-0.40
2018-02-08T07:27:45.447Z,-0.40
2018-02-08T07:30:12.916Z,-0.40
2018-02-08T07:32:40.379Z,-0.30
2018-02-08T07:35:08.595Z,-0.40
2018-02-08T07:37:36.074Z,-0.40
2018-02-08T07:40:04.294Z,-0.40
2018-02-08T07:42:31.751Z,-0.50
2018-02-08T07:44:59.208Z,-0.40
2018-02-08T07:47:26.774Z,-0.40
2018-02-08T07:49:54.230Z,-0.40
2018-02-08T07:52:21.679Z,-0.40
2018-02-08T07:54:50.114Z,-0.40
2018-02-08T07:57:17.587Z,-0.40
2018-02-08T07:59:45.054Z,-0.40
2018-02-08T08:02:12.499Z,-0.30
2018-02-08T08:04:39.978Z,-0.30
2018-02-08T08:07:07.443Z,-0.30
2018-02-08T08:09:34.919Z,-0.30
2018-02-08T08:12:02.454Z,-0.30
2018-02-08T08:14:29.906Z,-0.30
2018-02-08T08:16:57.367Z,-0.20
2018-02-08T08:19:24.832Z,-0.20
2018-02-08T08:21:52.290Z,-0.20
2018-02-08T08:24:19.775Z,-0.10
2018-02-08T08:26:47.236Z,-0.20
2018-02-08T08:29:14.703Z,-0.10
2018-02-08T08:31:42.167Z,-0.10
2018-02-08T08:34:09.631Z,-0.10
2018-02-08T08:36:37.080Z,0.10
2018-02-08T08:39:04.514Z,0.30
2018-02-08T08:41:31.992Z,0.30
2018-02-08T08:43:59.452Z,0.30
2018-02-08T08:46:26.903Z,0.40
2018-02-08T08:48:54.413Z,0.40
2018-02-08T08:51:21.835Z,0.40
2018-02-08T08:53:49.300Z,0.40
2018-02-08T08:56:16.754Z,0.40
2018-02-08T08:58:44.208Z,0.30
2018-02-08T09:01:11.657Z,0.50
2018-02-08T09:03:39.900Z,0.50
2018-02-08T09:06:07.377Z,0.50
2018-02-08T09:08:34.857Z,0.60
2018-02-08T09:11:03.089Z,0.70
2018-02-08T09:13:30.535Z,0.70
2018-02-08T09:15:57.999Z,0.70
2018-02-08T09:18:25.453Z,0.70
2018-02-08T09:20:52.904Z,0.80
2018-02-08T09:23:20.361Z,0.80
2018-02-08T09:25:47.833Z,0.70
2018-02-08T09:28:15.315Z,0.80
2018-02-08T09:30:42.752Z,0.80
2018-02-08T09:33:10.235Z,0.80
2018-02-08T09:35:37.694Z,0.80
2018-02-08T09:38:05.181Z,0.80
2018-02-08T09:40:32.623Z,0.70
2018-02-08T09:43:00.061Z,0.70
2018-02-08T09:45:27.523Z,0.70
2018-02-08T09:47:55.767Z,0.90
2018-02-08T09:50:23.203Z,0.90
2018-02-08T09:52:50.650Z,1.10
2018-02-08T09:55:18.095Z,1.20
2018-02-08T09:57:46.316Z,1.30
2018-02-08T10:00:13.773Z,1.30
2018-02-08T10:02:41.982Z,1.70
2018-02-08T10:05:09.430Z,1.70
2018-02-08T10:07:36.970Z,1.80
2018-02-08T10:10:04.421Z,1.80
2018-02-08T10:12:31.891Z,1.80
2018-02-08T10:14:59.368Z,1.80
2018-02-08T10:17:26.824Z,1.70
2018-02-08T10:19:54.274Z,1.80
2018-02-08T10:22:21.722Z,2.10
2018-02-08T10:24:49.180Z,2.20
2018-02-08T10:27:17.404Z,2.10
2018-02-08T10:29:44.863Z,2.10
2018-02-08T10:32:12.384Z,2.30
2018-02-08T10:34:40.606Z,2.10
2018-02-08T10:37:08.065Z,2.10
2018-02-08T10:39:35.515Z,2.30
2018-02-08T10:42:02.965Z,2.30
2018-02-08T10:44:30.421Z,2.40
2018-02-08T10:46:57.880Z,2.30
2018-02-08T10:49:26.094Z,2.20
2018-02-08T10:51:53.543Z,2.20
2018-02-08T10:54:21.003Z,2.40
2018-02-08T10:56:48.445Z,2.50
2018-02-08T10:59:16.663Z,2.40
2018-02-08T11:01:44.872Z,2.70
2018-02-08T11:04:12.328Z,2.70
2018-02-08T11:06:39.777Z,3.10
2018-02-08T11:09:07.239Z,3.30
2018-02-08T11:11:34.692Z,3.50
2018-02-08T11:14:02.142Z,3.60
2018-02-08T11:16:29.569Z,3.60
2018-02-08T11:18:57.802Z,3.30
2018-02-08T11:21:25.276Z,3.30
2018-02-08T11:23:52.715Z,3.20
2018-02-08T11:26:20.220Z,3.30
2018-02-08T11:28:47.642Z,3.30
2018-02-08T11:31:15.090Z,2.90
2018-02-08T11:33:42.525Z,3.10
2018-02-08T11:36:10.749Z,3.40
2018-02-08T11:38:38.199Z,3.30
2018-02-08T11:41:05.725Z,3.40
2018-02-08T11:43:33.187Z,3.10
2018-02-08T11:46:00.621Z,3.20
2018-02-08T11:48:28.088Z,3.10
2018-02-08T11:50:55.542Z,3.20
2018-02-08T11:53:23.000Z,3.50
2018-02-08T11:55:50.442Z,3.80
2018-02-08T11:58:17.925Z,3.80
2018-02-08T12:00:45.388Z,3.90
2018-02-08T12:03:12.819Z,3.80
2018-02-08T12:05:40.284Z,3.80
2018-02-08T12:08:07.756Z,4.00
2018-02-08T12:10:35.221Z,4.10
2018-02-08T12:13:02.680Z,4.30
2018-02-08T12:15:30.172Z,4.20
2018-02-08T12:17:57.636Z,3.90
2018-02-08T12:20:25.090Z,3.60
2018-02-08T12:22:52.551Z,3.40
2018-02-08T12:25:20.019Z,3.60
2018-02-08T12:27:47.479Z,3.80
2018-02-08T12:30:15.021Z,3.90
2018-02-08T12:32:42.452Z,3.60
2018-02-08T12:35:09.918Z,3.60
2018-02-08T12:37:38.149Z,4.10
2018-02-08T12:40:05.619Z,4.10
2018-02-08T12:42:33.100Z,4.00
2018-02-08T12:45:00.553Z,4.10
2018-02-08T12:47:28.012Z,4.00
2018-02-08T12:49:55.477Z,4.10
2018-02-08T12:52:22.921Z,4.00
2018-02-08T12:54:50.396Z,4.00
2018-02-08T12:57:17.848Z,4.00
2018-02-08T12:59:45.307Z,3.90
2018-02-08T13:02:12.770Z,3.90
2018-02-08T13:04:40.231Z,3.80
2018-02-08T13:07:07.692Z,3.60
2018-02-08T13:09:35.139Z,3.50
2018-02-08T13:12:02.619Z,3.60
2018-02-08T13:14:30.094Z,3.60
2018-02-08T13:16:57.554Z,3.80
2018-02-08T13:19:25.032Z,3.90
2018-02-08T13:21:52.498Z,3.90
2018-02-08T13:24:19.952Z,4.00
2018-02-08T13:26:47.408Z,4.00
2018-02-08T13:29:14.879Z,4.00
2018-02-08T13:31:43.133Z,3.90
2018-02-08T13:34:10.625Z,3.90
2018-02-08T13:36:38.060Z,3.80
2018-02-08T13:39:05.912Z,4.00
2018-02-08T13:41:34.556Z,4.10
2018-02-08T13:44:02.015Z,4.10
2018-02-08T13:46:29.467Z,4.20
2018-02-08T13:49:11.806Z,4.30
2018-02-08T13:51:45.717Z,4.20
2018-02-08T13:54:17.564Z,4.20
2018-02-08T13:56:45.447Z,4.20
2018-02-08T13:59:23.566Z,4.30
2018-02-08T14:01:56.428Z,4.10
2018-02-08T14:04:23.875Z,4.10
2018-02-08T14:06:51.345Z,4.10
2018-02-08T14:09:18.815Z,4.30
2018-02-08T14:11:46.276Z,4.40
2018-02-08T14:14:13.748Z,4.30
2018-02-08T14:16:41.215Z,4.20
2018-02-08T14:19:08.674Z,4.10
2018-02-08T14:21:36.146Z,4.10
2018-02-08T14:24:04.387Z,4.20
2018-02-08T14:26:31.848Z,4.20
2018-02-08T14:28:59.313Z,4.40
2018-02-08T14:31:26.762Z,4.50
2018-02-08T14:33:54.214Z,4.30
2018-02-08T14:36:21.677Z,4.30
2018-02-08T14:38:49.131Z,4.10
2018-02-08T14:41:16.590Z,4.00
2018-02-08T14:43:44.030Z,4.00
2018-02-08T14:46:12.259Z,3.80
2018-02-08T14:48:39.747Z,3.80
2018-02-08T14:51:07.206Z,3.80
2018-02-08T14:53:34.666Z,3.80
2018-02-08T14:56:02.126Z,3.80
2018-02-08T14:58:29.573Z,3.90
2018-02-08T15:00:57.041Z,3.90
2018-02-08T15:03:24.487Z,3.90
2018-02-08T15:05:51.935Z,3.90
2018-02-08T15:08:19.383Z,3.80
2018-02-08T15:10:47.595Z,3.80
2018-02-08T15:13:15.052Z,3.80
2018-02-08T15:15:42.507Z,3.80
2018-02-08T15:18:09.975Z,3.80
2018-02-08T15:20:37.421Z,3.70
2018-02-08T15:23:04.885Z,3.70
2018-02-08T15:25:32.342Z,3.70
2018-02-08T15:28:00.578Z,3.70
2018-02-08T15:30:28.054Z,3.70
2018-02-08T15:32:55.518Z,3.70
2018-02-08T15:35:22.984Z,3.60
2018-02-08T15:37:51.227Z,3.50
2018-02-08T15:40:18.710Z,3.50
2018-02-08T15:42:46.153Z,3.40
2018-02-08T15:45:13.663Z,3.40
2018-02-08T15:47:41.133Z,3.30
2018-02-08T15:50:08.580Z,3.40
2018-02-08T15:52:36.014Z,3.30
2018-02-08T15:55:03.500Z,3.30
2018-02-08T15:57:30.915Z,3.20
2018-02-08T15:59:58.394Z,3.10
2018-02-08T16:02:25.874Z,3.00
2018-02-08T16:04:53.315Z,3.10
2018-02-08T16:07:20.774Z,3.10
2018-02-08T16:09:48.246Z,3.10
2018-02-08T16:12:15.734Z,3.20
2018-02-08T16:14:43.195Z,3.10
2018-02-08T16:17:10.658Z,3.10
2018-02-08T16:19:38.129Z,3.10
2018-02-08T16:22:05.548Z,3.00
2018-02-08T16:24:33.022Z,3.00
2018-02-08T16:27:00.462Z,3.00
2018-02-08T16:29:27.914Z,2.90
2018-02-08T16:31:55.367Z,2.90
2018-02-08T16:34:23.566Z,2.80
2018-02-08T16:36:51.031Z,2.80
2018-02-08T16:39:18.479Z,2.80
2018-02-08T16:41:45.943Z,2.80
2018-02-08T16:44:13.397Z,2.80
2018-02-08T16:46:41.631Z,2.80
2018-02-08T16:49:09.086Z,2.80
2018-02-08T16:51:36.556Z,2.70
2018-02-08T16:54:04.091Z,2.70
2018-02-08T16:56:31.580Z,2.60
2018-02-08T16:58:59.015Z,2.50
2018-02-08T17:01:26.453Z,2.60
2018-02-08T17:03:54.672Z,2.60
2018-02-08T17:06:22.120Z,2.60
2018-02-08T17:08:49.593Z,2.60
2018-02-08T17:11:17.049Z,2.50
2018-02-08T17:13:44.505Z,2.50
2018-02-08T17:16:11.955Z,2.50
2018-02-08T17:18:39.561Z,2.40
2018-02-08T17:21:07.768Z,2.40
2018-02-08T17:23:35.230Z,2.40
2018-02-08T17:26:02.685Z,2.40
2018-02-08T17:28:30.139Z,2.30
2018-02-08T17:30:57.598Z,2.30
2018-02-08T17:33:25.079Z,2.30
2018-02-08T17:35:52.513Z,2.20
2018-02-08T17:38:19.991Z,2.20
2018-02-08T17:40:47.434Z,2.20
2018-02-08T17:43:14.893Z,2.20
2018-02-08T17:45:43.116Z,2.20
2018-02-08T17:48:10.598Z,2.20
2018-02-08T17:50:38.435Z,2.20
2018-02-08T17:53:06.680Z,2.10
2018-02-08T17:55:34.134Z,2.10
2018-02-08T17:58:01.597Z,2.10
2018-02-08T18:00:29.033Z,2.00
2018-02-08T18:02:57.249Z,2.00
2018-02-08T18:05:24.710Z,2.00
2018-02-08T18:07:52.539Z,1.90
2018-02-08T18:10:20.753Z,1.90
2018-02-08T18:12:48.173Z,1.90
2018-02-08T18:15:15.677Z,1.90
2018-02-08T18:17:43.080Z,1.90
2018-02-08T18:20:10.533Z,1.80
2018-02-08T18:22:38.002Z,1.80
2018-02-08T18:25:05.459Z,1.80
2018-02-08T18:27:32.947Z,1.80
2018-02-08T18:30:00.404Z,1.70
2018-02-08T18:32:27.856Z,1.70
2018-02-08T18:34:55.336Z,1.70
2018-02-08T18:37:22.830Z,1.70
2018-02-08T18:39:50.248Z,1.60
2018-02-08T18:42:17.720Z,1.60
2018-02-08T18:44:45.179Z,1.60
2018-02-08T18:47:12.634Z,1.60
2018-02-08T18:49:40.130Z,1.90
2018-02-08T18:52:08.359Z,2.10
2018-02-08T18:54:35.824Z,2.00
2018-02-08T18:57:03.278Z,1.80
2018-02-08T18:59:30.816Z,1.70
2018-02-08T19:01:58.289Z,1.60
2018-02-08T19:04:25.781Z,1.60
2018-02-08T19:06:53.272Z,1.50
2018-02-08T19:09:20.751Z,1.60
2018-02-08T19:11:48.231Z,1.50
2018-02-08T19:14:16.466Z,1.50
2018-02-08T19:16:43.946Z,1.50
2018-02-08T19:19:11.402Z,1.50
2018-02-08T19:21:41.293Z,1.50
2018-02-08T19:24:08.775Z,1.40
2018-02-08T19:26:36.294Z,1.40
2018-02-08T19:29:04.865Z,1.50
2018-02-08T19:31:33.193Z,1.40
2018-02-08T19:34:00.839Z,1.40
2018-02-08T19:36:28.289Z,1.40
2018-02-08T19:38:55.752Z,1.40
2018-02-08T19:41:23.312Z,1.40
2018-02-08T19:43:51.508Z,1.50
2018-02-08T19:46:18.968Z,1.40
2018-02-08T19:48:46.434Z,1.40
2018-02-08T19:51:13.892Z,1.50
2018-02-08T19:53:41.368Z,1.50
2018-02-08T19:56:08.853Z,1.50
2018-02-08T19:58:36.325Z,1.50
2018-02-08T20:01:03.843Z,1.40
2018-02-08T20:03:31.289Z,1.40
2018-02-08T20:05:59.551Z,1.40
2018-02-08T20:08:27.007Z,1.30
2018-02-08T20:10:54.468Z,1.30
2018-02-08T20:13:21.920Z,1.30
2018-02-08T20:15:49.388Z,1.30
2018-02-08T20:18:16.891Z,1.30
2018-02-08T20:20:44.405Z,1.30
2018-02-08T20:23:11.880Z,1.20
2018-02-08T20:25:44.172Z,1.20
2018-02-08T20:28:12.392Z,1.20
2018-02-08T20:30:39.847Z,1.20
2018-02-08T20:33:07.293Z,1.20
2018-02-08T20:35:34.738Z,1.20
2018-02-08T20:38:02.977Z,1.20
2018-02-08T20:40:30.457Z,1.10
2018-02-08T20:43:03.540Z,1.10
2018-02-08T20:45:30.995Z,1.20
2018-02-08T20:47:58.476Z,1.10
2018-02-08T20:50:26.006Z,1.10
2018-02-08T20:52:53.476Z,1.10
2018-02-08T20:55:20.926Z,1.10
2018-02-08T20:57:48.366Z,1.10
2018-02-08T21:00:15.846Z,1.10
2018-02-08T21:02:43.306Z,1.10
2018-02-08T21:05:10.777Z,1.20
2018-02-08T21:07:38.230Z,1.20
2018-02-08T21:10:05.693Z,1.20
2018-02-08T21:12:33.176Z,1.20
2018-02-08T21:15:00.636Z,1.20
2018-02-08T21:17:28.865Z,1.20
2018-02-08T21:19:56.370Z,1.20
2018-02-08T21:22:23.849Z,1.20
2018-02-08T21:24:51.315Z,1.20
2018-02-08T21:27:18.779Z,1.30
2018-02-08T21:29:46.258Z,1.30
2018-02-08T21:32:13.767Z,1.30
2018-02-08T21:34:41.271Z,1.30
2018-02-08T21:37:08.909Z,1.30
2018-02-08T21:39:36.367Z,1.30
2018-02-08T21:42:03.852Z,1.30
2018-02-08T21:44:31.305Z,1.30
2018-02-08T21:46:58.770Z,1.30
2018-02-08T21:49:26.223Z,1.30
2018-02-08T21:51:53.740Z,1.30
2018-02-08T21:54:21.198Z,1.30
2018-02-08T21:56:48.664Z,1.30
2018-02-08T21:59:16.137Z,1.30
2018-02-08T22:01:44.413Z,1.30
2018-02-08T22:04:11.888Z,1.40
2018-02-08T22:06:40.146Z,1.40
2018-02-08T22:09:07.612Z,1.40
2018-02-08T22:11:35.107Z,1.40
2018-02-08T22:14:03.330Z,1.40
2018-02-08T22:16:30.801Z,1.40
2018-02-08T22:18:58.283Z,1.50
2018-02-08T22:21:25.728Z,1.50
2018-02-08T22:23:53.180Z,1.50
2018-02-08T22:26:21.456Z,1.50
2018-02-08T22:28:48.921Z,1.50
2018-02-08T22:31:16.372Z,1.50
2018-02-08T22:33:43.827Z,1.60
2018-02-08T22:36:11.292Z,1.60
2018-02-08T22:38:38.721Z,1.60
2018-02-08T22:41:07.034Z,1.60
2018-02-08T22:43:34.504Z,1.60
2018-02-08T22:46:01.962Z,1.60
2018-02-08T22:48:29.435Z,1.60
2018-02-08T22:50:56.918Z,1.70
2018-02-08T22:53:24.375Z,1.70
2018-02-08T22:55:51.828Z,1.70
2018-02-08T22:58:19.285Z,1.70
2018-02-08T23:00:46.746Z,1.60
2018-02-08T23:03:14.206Z,1.60
2018-02-08T23:05:41.669Z,1.70
2018-02-08T23:08:09.124Z,1.60
2018-02-08T23:10:36.586Z,1.60
2018-02-08T23:13:04.029Z,1.60
2018-02-08T23:15:32.277Z,1.60
2018-02-08T23:17:59.722Z,1.60
2018-02-08T23:20:27.190Z,1.70
2018-02-08T23:22:54.644Z,1.60
2018-02-08T23:25:22.100Z,1.70
2018-02-08T23:27:49.572Z,1.60
2018-02-08T23:30:17.027Z,1.60
2018-02-08T23:32:44.485Z,1.70
2018-02-08T23:35:11.936Z,1.70
2018-02-08T23:37:39.408Z,1.70
2018-02-08T23:40:06.869Z,1.60
2018-02-08T23:42:34.341Z,1.60
2018-02-08T23:45:01.780Z,1.60
2018-02-08T23:47:29.227Z,1.60
2018-02-08T23:49:56.676Z,1.70
2018-02-08T23:52:24.909Z,1.60
2018-02-08T23:54:52.372Z,1.60
2018-02-08T23:57:19.823Z,1.60
2018-02-08T23:59:47.285Z,1.60
